Elissa — WDD9058 — position and weather

sailwx.info

Track history (hours):
 
Tides and Currents Weather Stations Pressure Air Temp Water Temp Dewpoint Dewpoint Depression Visibility Wind Speed Wind Dir Waves Ship Positions

Elissa

Owner: Ingram Barge Company, Nashville, TN. More information available from US FCC via Universal Licensing System and Coast Guard Vessel Documentation Center.

Last reported at 2016-Jun-29 02:27 UTC. Time now 2016-Jun-29 03:50 UTC.
Position N 29°55' W 090°13'.

Length 26 m; draft 3.6 m.

Type: Towing. MMSI: 367306290.

Date/timePositionNaut miles runAvg speedWind from/ knotsBaromVisibWave heightAir tempDewpointWater temp
2016-Jun-29 02:27N 29°55' W 090°13'3 3.0
2016-Jun-29 01:33N 29°57' W 090°10'0 0.1
2016-Jun-29 00:32N 29°57' W 090°10'0 0.1
2016-Jun-28 23:33N 29°57' W 090°10'0 0.0
2016-Jun-28 22:33N 29°57' W 090°10'0 0.0
2016-Jun-28 21:33N 29°57' W 090°10'0 0.2
2016-Jun-28 20:33N 29°57' W 090°10'0 0.0
2016-Jun-28 19:33N 29°57' W 090°10'0 0.3
2016-Jun-28 18:32N 29°57' W 090°10'3 3.0
2016-Jun-28 17:33N 29°56' W 090°13'  
2016-Jun-26 02:09N 29°57' W 090°14'3 4.4
2016-Jun-26 01:33N 29°56' W 090°11'1 1.0
2016-Jun-26 00:33N 29°56' W 090°10'1 0.7
2016-Jun-25 23:33N 29°57' W 090°10'0 0.3
2016-Jun-25 22:33N 29°57' W 090°10'0 0.0
2016-Jun-25 21:33N 29°57' W 090°10'0 0.0
2016-Jun-25 20:33N 29°57' W 090°10'0 0.0
2016-Jun-25 19:33N 29°57' W 090°10'0 0.0
2016-Jun-25 18:32N 29°57' W 090°10'0 0.2
2016-Jun-25 17:33N 29°57' W 090°10'  
2016-Jun-22 16:33N 29°56' W 090°11'0 0.2
2016-Jun-22 14:33N 29°56' W 090°11'1 1.0
2016-Jun-22 13:32N 29°56' W 090°12'0 0.0
2016-Jun-22 12:15N 29°56' W 090°12'1 2.0
2016-Jun-22 11:33N 29°56' W 090°11'2 1.9
2016-Jun-22 10:33N 29°56' W 090°08'4 3.5
2016-Jun-22 09:34N 29°55' W 090°05'1 0.7
2016-Jun-22 08:33N 29°55' W 090°05'5 4.7
2016-Jun-22 07:33N 29°57' W 090°10'0 0.2
2016-Jun-22 06:33N 29°57' W 090°10'  
Track history (hours):
 
Tides and Currents Weather Stations Pressure Air Temp Water Temp Dewpoint Dewpoint Depression Visibility Wind Speed Wind Dir Waves Ship Positions

Elissa

Owner: Ingram Barge Company, Nashville, TN. More information available from US FCC via Universal Licensing System and Coast Guard Vessel Documentation Center.

Last reported at 2016-Jun-29 02:27 UTC. Time now 2016-Jun-29 03:50 UTC.
Position N 29°55' W 090°13'.

Length 26 m; draft 3.6 m.

Type: Towing. MMSI: 367306290.

Date/timePositionNaut miles runAvg speedWind from/ knotsBaromVisibWave heightAir tempDewpointWater temp
2016-Jun-29 02:27N 29°55' W 090°13'3 3.0
2016-Jun-29 01:33N 29°57' W 090°10'0 0.1
2016-Jun-29 00:32N 29°57' W 090°10'0 0.1
2016-Jun-28 23:33N 29°57' W 090°10'0 0.0
2016-Jun-28 22:33N 29°57' W 090°10'0 0.0
2016-Jun-28 21:33N 29°57' W 090°10'0 0.2
2016-Jun-28 20:33N 29°57' W 090°10'0 0.0
2016-Jun-28 19:33N 29°57' W 090°10'0 0.3
2016-Jun-28 18:32N 29°57' W 090°10'3 3.0
2016-Jun-28 17:33N 29°56' W 090°13'  
2016-Jun-26 02:09N 29°57' W 090°14'3 4.4
2016-Jun-26 01:33N 29°56' W 090°11'1 1.0
2016-Jun-26 00:33N 29°56' W 090°10'1 0.7
2016-Jun-25 23:33N 29°57' W 090°10'0 0.3
2016-Jun-25 22:33N 29°57' W 090°10'0 0.0
2016-Jun-25 21:33N 29°57' W 090°10'0 0.0
2016-Jun-25 20:33N 29°57' W 090°10'0 0.0
2016-Jun-25 19:33N 29°57' W 090°10'0 0.0
2016-Jun-25 18:32N 29°57' W 090°10'0 0.2
2016-Jun-25 17:33N 29°57' W 090°10'  
2016-Jun-22 16:33N 29°56' W 090°11'0 0.2
2016-Jun-22 14:33N 29°56' W 090°11'1 1.0
2016-Jun-22 13:32N 29°56' W 090°12'0 0.0
2016-Jun-22 12:15N 29°56' W 090°12'1 2.0
2016-Jun-22 11:33N 29°56' W 090°11'2 1.9
2016-Jun-22 10:33N 29°56' W 090°08'4 3.5
2016-Jun-22 09:34N 29°55' W 090°05'1 0.7
2016-Jun-22 08:33N 29°55' W 090°05'5 4.7
2016-Jun-22 07:33N 29°57' W 090°10'0 0.2
2016-Jun-22 06:33N 29°57' W 090°10'  

Dump ship's entire track history